Time,TemperatureF,DewpointF,PressureIn,WindDirection,WindDirectionDegrees,WindSpeedMPH,WindSpeedGustMPH,Humidity,HourlyPrecipIn,Conditions,Clouds,dailyrainin,SoftwareType,DateUTC
2013-11-14 00:01:00,22.3,18.8,30.37,South,180,0.0,-999.0,86,-99.99,,,0.00,Acu-Link.com,2013-11-14 05:01:00,
2013-11-14 00:16:00,21.6,18.1,30.37,South,180,0.0,-999.0,86,-99.99,,,0.00,Acu-Link.com,2013-11-14 05:16:00,
2013-11-14 00:31:00,21.6,18.3,30.36,SSW,202,0.0,-999.0,87,-99.99,,,0.00,Acu-Link.com,2013-11-14 05:31:00,
2013-11-14 00:46:00,21.9,18.6,30.36,SSE,157,0.0,-999.0,87,-99.99,,,0.00,Acu-Link.com,2013-11-14 05:46:00,
2013-11-14 01:01:00,21.6,18.3,30.35,South,180,0.0,-999.0,87,-99.99,,,0.00,Acu-Link.com,2013-11-14 06:01:00,
2013-11-14 01:17:00,21.2,17.9,30.35,SW,225,0.0,-999.0,87,-99.99,,,0.00,Acu-Link.com,2013-11-14 06:17:00,
2013-11-14 01:32:00,20.8,17.6,30.35,SSE,157,0.0,-999.0,87,-99.99,,,0.00,Acu-Link.com,2013-11-14 06:32:00,
2013-11-14 01:47:00,21.0,17.8,30.35,South,180,0.0,-999.0,87,-99.99,,,0.00,Acu-Link.com,2013-11-14 06:47:00,
2013-11-14 02:02:00,20.8,17.6,30.34,South,180,0.0,-999.0,87,-99.99,,,0.00,Acu-Link.com,2013-11-14 07:02:00,
2013-11-14 02:17:00,20.5,17.3,30.35,SE,135,0.0,-999.0,87,-99.99,,,0.00,Acu-Link.com,2013-11-14 07:17:00,
2013-11-14 02:33:00,20.7,17.5,30.34,SW,225,0.0,-999.0,87,-99.99,,,0.00,Acu-Link.com,2013-11-14 07:33:00,
2013-11-14 02:48:00,21.9,19.2,30.33,SSE,157,0.0,-999.0,89,-99.99,,,0.00,Acu-Link.com,2013-11-14 07:48:00,
2013-11-14 03:03:00,22.1,19.4,30.33,SW,225,0.0,-999.0,89,-99.99,,,0.00,Acu-Link.com,2013-11-14 08:03:00,
2013-11-14 03:18:00,21.2,18.5,30.33,SW,225,0.0,-999.0,89,-99.99,,,0.00,Acu-Link.com,2013-11-14 08:18:00,
2013-11-14 03:34:00,21.0,18.3,30.33,West,270,0.0,-999.0,89,-99.99,,,0.00,Acu-Link.com,2013-11-14 08:34:00,
2013-11-14 03:49:00,21.0,18.3,30.33,West,270,0.0,-999.0,89,-99.99,,,0.00,Acu-Link.com,2013-11-14 08:49:00,
2013-11-14 04:04:00,20.8,18.1,30.34,South,180,0.0,-999.0,89,-99.99,,,0.00,Acu-Link.com,2013-11-14 09:04:00,
2013-11-14 04:19:00,20.7,18.0,30.34,SW,225,0.0,-999.0,89,-99.99,,,0.00,Acu-Link.com,2013-11-14 09:19:00,
2013-11-14 04:34:00,20.7,18.0,30.33,SSE,157,0.0,-999.0,89,-99.99,,,0.00,Acu-Link.com,2013-11-14 09:34:00,
2013-11-14 04:50:00,21.0,18.3,30.33,SE,135,0.0,-999.0,89,-99.99,,,0.00,Acu-Link.com,2013-11-14 09:50:00,
2013-11-14 05:05:00,21.4,18.7,30.33,SSE,157,0.0,-999.0,89,-99.99,,,0.00,Acu-Link.com,2013-11-14 10:05:00,
2013-11-14 05:20:00,20.8,18.1,30.32,South,180,0.0,-999.0,89,-99.99,,,0.00,Acu-Link.com,2013-11-14 10:20:00,
2013-11-14 05:35:00,20.5,17.8,30.32,SSE,157,0.0,-999.0,89,-99.99,,,0.00,Acu-Link.com,2013-11-14 10:35:00,
2013-11-14 05:50:00,19.9,16.9,30.32,South,180,0.0,-999.0,88,-99.99,,,0.00,Acu-Link.com,2013-11-14 10:50:00,
2013-11-14 06:06:00,20.1,17.1,30.32,SSE,157,0.0,-999.0,88,-99.99,,,0.00,Acu-Link.com,2013-11-14 11:06:00,
2013-11-14 06:21:00,19.9,16.9,30.32,East,90,0.0,-999.0,88,-99.99,,,0.00,Acu-Link.com,2013-11-14 11:21:00,
2013-11-14 06:36:00,19.9,16.9,30.32,South,180,0.0,-999.0,88,-99.99,,,0.00,Acu-Link.com,2013-11-14 11:36:00,
2013-11-14 06:52:00,20.3,17.6,30.33,East,90,0.0,-999.0,89,-99.99,,,0.00,Acu-Link.com,2013-11-14 11:52:00,
2013-11-14 07:07:00,21.4,18.7,30.33,SE,135,0.0,-999.0,89,-99.99,,,0.00,Acu-Link.com,2013-11-14 12:07:00,
2013-11-14 07:22:00,26.8,24.0,30.33,SE,135,0.0,-999.0,89,-99.99,,,0.00,Acu-Link.com,2013-11-14 12:22:00,
2013-11-14 07:37:00,32.2,27.6,30.33,SE,135,0.0,-999.0,83,-99.99,,,0.00,Acu-Link.com,2013-11-14 12:37:00,
2013-11-14 07:52:00,34.0,26.6,30.34,South,180,0.0,-999.0,74,-99.99,,,0.00,Acu-Link.com,2013-11-14 12:52:00,
2013-11-14 08:08:00,35.6,27.1,30.35,SW,225,1.7,-999.0,71,-99.99,,,0.00,Acu-Link.com,2013-11-14 13:08:00,
2013-11-14 08:23:00,38.1,28.5,30.35,SSW,202,2.7,-999.0,68,-99.99,,,0.00,Acu-Link.com,2013-11-14 13:23:00,
2013-11-14 08:38:00,40.1,30.0,30.36,SE,135,2.7,-999.0,67,-99.99,,,0.00,Acu-Link.com,2013-11-14 13:38:00,
2013-11-14 08:53:00,42.3,30.6,30.36,SW,225,3.7,-999.0,63,-99.99,,,0.00,Acu-Link.com,2013-11-14 13:53:00,
2013-11-14 09:08:00,44.2,31.2,30.36,SSW,202,5.3,-999.0,60,-99.99,,,0.00,Acu-Link.com,2013-11-14 14:08:00,
2013-11-14 09:24:00,45.9,30.2,30.35,South,180,7.8,-999.0,54,-99.99,,,0.00,Acu-Link.com,2013-11-14 14:24:00,
2013-11-14 09:39:00,47.1,28.9,30.35,West,270,4.7,-999.0,49,-99.99,,,0.00,Acu-Link.com,2013-11-14 14:39:00,
2013-11-14 09:54:00,48.7,28.3,30.34,SE,135,4.7,-999.0,45,-99.99,,,0.00,Acu-Link.com,2013-11-14 14:54:00,
2013-11-14 10:09:00,50.9,28.6,30.34,SE,135,3.7,-999.0,42,-99.99,,,0.00,Acu-Link.com,2013-11-14 15:09:00,
2013-11-14 10:24:00,51.1,26.4,30.33,SSW,202,5.3,-999.0,38,-99.99,,,0.00,Acu-Link.com,2013-11-14 15:24:00,
2013-11-14 10:40:00,52.3,27.5,30.33,SSW,202,3.7,-999.0,38,-99.99,,,0.00,Acu-Link.com,2013-11-14 15:40:00,
2013-11-14 10:55:00,53.1,28.2,30.32,WSW,247,5.8,-999.0,38,-99.99,,,0.00,Acu-Link.com,2013-11-14 15:55:00,
2013-11-14 11:10:00,53.6,26.6,30.32,West,270,4.2,-999.0,35,-99.99,,,0.00,Acu-Link.com,2013-11-14 16:10:00,
2013-11-14 11:25:00,54.3,26.5,30.31,West,270,4.7,-999.0,34,-99.99,,,0.00,Acu-Link.com,2013-11-14 16:25:00,
2013-11-14 11:41:00,55.0,26.4,30.30,NNW,337,2.7,-999.0,33,-99.99,,,0.00,Acu-Link.com,2013-11-14 16:41:00,
2013-11-14 11:56:00,57.0,25.9,30.28,SSW,202,5.3,-999.0,30,-99.99,,,0.00,Acu-Link.com,2013-11-14 16:56:00,
2013-11-14 12:11:00,56.5,23.8,30.27,South,180,4.2,-999.0,28,-99.99,,,0.00,Acu-Link.com,2013-11-14 17:11:00,
2013-11-14 12:26:00,57.4,23.7,30.27,WSW,247,8.9,-999.0,27,-99.99,,,0.00,Acu-Link.com,2013-11-14 17:26:00,
2013-11-14 12:41:00,57.6,22.0,30.27,SSW,202,3.7,-999.0,25,-99.99,,,0.00,Acu-Link.com,2013-11-14 17:41:00,
2013-11-14 12:57:00,58.3,22.6,30.26,West,270,4.7,-999.0,25,-99.99,,,0.00,Acu-Link.com,2013-11-14 17:57:00,
2013-11-14 13:12:00,58.8,21.1,30.26,SSW,202,9.9,-999.0,23,-99.99,,,0.00,Acu-Link.com,2013-11-14 18:12:00,
2013-11-14 13:27:00,58.6,19.9,30.25,West,270,2.7,-999.0,22,-99.99,,,0.00,Acu-Link.com,2013-11-14 18:27:00,
2013-11-14 13:42:00,59.0,21.3,30.24,ESE,112,3.2,-999.0,23,-99.99,,,0.00,Acu-Link.com,2013-11-14 18:42:00,
2013-11-14 13:57:00,59.0,21.3,30.24,SSE,157,2.2,-999.0,23,-99.99,,,0.00,Acu-Link.com,2013-11-14 18:57:00,
2013-11-14 14:13:00,58.6,21.9,30.23,SW,225,4.2,-999.0,24,-99.99,,,0.00,Acu-Link.com,2013-11-14 19:13:00,
2013-11-14 14:28:00,58.3,19.6,30.23,West,270,2.2,-999.0,22,-99.99,,,0.00,Acu-Link.com,2013-11-14 19:28:00,
2013-11-14 14:43:00,58.3,19.6,30.23,NW,315,10.9,-999.0,22,-99.99,,,0.00,Acu-Link.com,2013-11-14 19:43:00,
2013-11-14 14:58:00,57.0,15.2,30.23,SSW,202,2.7,-999.0,19,-99.99,,,0.00,Acu-Link.com,2013-11-14 19:58:00,
2013-11-14 15:13:00,57.2,19.8,30.23,WSW,247,3.2,-999.0,23,-99.99,,,0.00,Acu-Link.com,2013-11-14 20:13:00,
2013-11-14 15:29:00,57.2,22.6,30.23,South,180,5.8,-999.0,26,-99.99,,,0.00,Acu-Link.com,2013-11-14 20:29:00,
2013-11-14 15:44:00,55.8,23.2,30.24,SW,225,4.2,-999.0,28,-99.99,,,0.00,Acu-Link.com,2013-11-14 20:44:00,
2013-11-14 15:59:00,54.7,24.7,30.24,NE,45,2.2,-999.0,31,-99.99,,,0.00,Acu-Link.com,2013-11-14 20:59:00,
2013-11-14 16:14:00,52.9,26.7,30.23,SSW,202,6.3,-999.0,36,-99.99,,,0.00,Acu-Link.com,2013-11-14 21:14:00,
2013-11-14 16:29:00,50.7,27.3,30.24,West,270,1.7,-999.0,40,-99.99,,,0.00,Acu-Link.com,2013-11-14 21:29:00,
2013-11-14 16:45:00,49.1,26.4,30.24,East,90,0.0,-999.0,41,-99.99,,,0.00,Acu-Link.com,2013-11-14 21:45:00,
2013-11-14 17:00:00,48.0,26.6,30.25,NE,45,0.0,-999.0,43,-99.99,,,0.00,Acu-Link.com,2013-11-14 22:00:00,
2013-11-14 17:15:00,46.4,26.2,30.25,WSW,247,0.0,-999.0,45,-99.99,,,0.00,Acu-Link.com,2013-11-14 22:15:00,
2013-11-14 17:30:00,44.4,26.0,30.25,SW,225,0.0,-999.0,48,-99.99,,,0.00,Acu-Link.com,2013-11-14 22:30:00,
2013-11-14 17:46:00,42.6,25.8,30.25,SSE,157,0.0,-999.0,51,-99.99,,,0.00,Acu-Link.com,2013-11-14 22:46:00,
2013-11-14 18:01:00,40.8,25.0,30.25,SE,135,0.0,-999.0,53,-99.99,,,0.00,Acu-Link.com,2013-11-14 23:01:00,
2013-11-14 18:16:00,39.6,24.8,30.25,South,180,0.0,-999.0,55,-99.99,,,0.00,Acu-Link.com,2013-11-14 23:16:00,
2013-11-14 18:31:00,38.5,24.6,30.24,SSE,157,0.0,-999.0,57,-99.99,,,0.00,Acu-Link.com,2013-11-14 23:31:00,
2013-11-14 18:46:00,37.2,23.8,30.25,ESE,112,0.0,-999.0,58,-99.99,,,0.00,Acu-Link.com,2013-11-14 23:46:00,
2013-11-14 19:02:00,36.5,24.7,30.25,SSW,202,0.0,-999.0,62,-99.99,,,0.00,Acu-Link.com,2013-11-15 00:02:00,
2013-11-14 19:17:00,36.0,24.6,30.26,SSE,157,0.0,-999.0,63,-99.99,,,0.00,Acu-Link.com,2013-11-15 00:17:00,
2013-11-14 19:32:00,35.2,25.0,30.25,ESE,112,0.0,-999.0,66,-99.99,,,0.00,Acu-Link.com,2013-11-15 00:32:00,
2013-11-14 19:47:00,34.7,25.6,30.25,ESE,112,0.0,-999.0,69,-99.99,,,0.00,Acu-Link.com,2013-11-15 00:47:00,
2013-11-14 20:02:00,34.3,25.6,30.25,East,90,0.0,-999.0,70,-99.99,,,0.00,Acu-Link.com,2013-11-15 01:02:00,
2013-11-14 20:18:00,33.6,25.6,30.25,NE,45,0.0,-999.0,72,-99.99,,,0.00,Acu-Link.com,2013-11-15 01:18:00,
2013-11-14 20:33:00,33.3,25.6,30.25,South,180,0.0,-999.0,73,-99.99,,,0.00,Acu-Link.com,2013-11-15 01:33:00,
2013-11-14 20:48:00,32.2,25.2,30.25,South,180,0.0,-999.0,75,-99.99,,,0.00,Acu-Link.com,2013-11-15 01:48:00,
2013-11-14 21:03:00,31.5,25.1,30.25,ENE,67,0.0,-999.0,77,-99.99,,,0.00,Acu-Link.com,2013-11-15 02:03:00,
2013-11-14 21:18:00,31.3,25.3,30.25,SSE,157,0.0,-999.0,78,-99.99,,,0.00,Acu-Link.com,2013-11-15 02:18:00,
2013-11-14 21:34:00,30.9,25.5,30.24,ESE,112,0.0,-999.0,80,-99.99,,,0.00,Acu-Link.com,2013-11-15 02:34:00,
2013-11-14 21:49:00,30.9,26.4,30.24,ENE,67,0.0,-999.0,83,-99.99,,,0.00,Acu-Link.com,2013-11-15 02:49:00,
2013-11-14 22:04:00,31.3,26.7,30.24,ENE,67,0.0,-999.0,83,-99.99,,,0.00,Acu-Link.com,2013-11-15 03:04:00,
2013-11-14 22:19:00,31.6,27.0,30.23,East,90,0.0,-999.0,83,-99.99,,,0.00,Acu-Link.com,2013-11-15 03:19:00,
2013-11-14 22:34:00,32.0,27.1,30.23,ENE,67,0.0,-999.0,82,-99.99,,,0.00,Acu-Link.com,2013-11-15 03:34:00,
2013-11-14 22:50:00,32.5,27.6,30.23,ENE,67,0.0,-999.0,82,-99.99,,,0.00,Acu-Link.com,2013-11-15 03:50:00,
2013-11-14 23:05:00,32.9,27.7,30.23,SE,135,0.0,-999.0,81,-99.99,,,0.00,Acu-Link.com,2013-11-15 04:05:00,
2013-11-14 23:20:00,32.5,27.3,30.24,ESE,112,0.0,-999.0,81,-99.99,,,0.00,Acu-Link.com,2013-11-15 04:20:00,
2013-11-14 23:35:00,33.4,28.2,30.24,ESE,112,0.0,-999.0,81,-99.99,,,0.00,Acu-Link.com,2013-11-15 04:35:00,
2013-11-14 23:51:00,33.4,28.5,30.24,SE,135,0.0,-999.0,82,-99.99,,,0.00,Acu-Link.com,2013-11-15 04:51:00,